sensor_id;sensor_type;location;lat;lon;timestamp;P1;durP1;ratioP1;P2;durP2;ratioP2
3417;SDS011;68007;51.312;12.372;2023-03-01T00:01:02;19.17;;;10.33;;
3417;SDS011;68007;51.312;12.372;2023-03-01T00:03:32;14.30;;;9.13;;
3417;SDS011;68007;51.312;12.372;2023-03-01T00:06:00;18.80;;;10.97;;
3417;SDS011;68007;51.312;12.372;2023-03-01T00:08:28;18.93;;;10.60;;
3417;SDS011;68007;51.312;12.372;2023-03-01T00:11:01;17.43;;;10.33;;
3417;SDS011;68007;51.312;12.372;2023-03-01T00:13:31;23.47;;;11.17;;
3417;SDS011;68007;51.312;12.372;2023-03-01T00:15:58;18.77;;;10.17;;
3417;SDS011;68007;51.312;12.372;2023-03-01T00:18:28;20.70;;;11.20;;
3417;SDS011;68007;51.312;12.372;2023-03-01T00:20:55;20.63;;;11.00;;
3417;SDS011;68007;51.312;12.372;2023-03-01T00:23:23;22.20;;;10.50;;
3417;SDS011;68007;51.312;12.372;2023-03-01T00:25:51;18.10;;;10.00;;
3417;SDS011;68007;51.312;12.372;2023-03-01T00:28:20;22.97;;;10.93;;
3417;SDS011;68007;51.312;12.372;2023-03-01T00:30:48;16.43;;;9.13;;
3417;SDS011;68007;51.312;12.372;2023-03-01T00:33:15;15.50;;;10.33;;
3417;SDS011;68007;51.312;12.372;2023-03-01T00:35:43;20.10;;;10.10;;
3417;SDS011;68007;51.312;12.372;2023-03-01T00:38:10;15.83;;;9.80;;
3417;SDS011;68007;51.312;12.372;2023-03-01T00:40:38;19.07;;;9.63;;
3417;SDS011;68007;51.312;12.372;2023-03-01T00:43:05;19.20;;;10.10;;
3417;SDS011;68007;51.312;12.372;2023-03-01T00:45:34;14.83;;;9.60;;
3417;SDS011;68007;51.312;12.372;2023-03-01T00:48:02;17.67;;;10.33;;
3417;SDS011;68007;51.312;12.372;2023-03-01T00:50:33;18.80;;;10.27;;
3417;SDS011;68007;51.312;12.372;2023-03-01T00:53:01;16.80;;;9.20;;
3417;SDS011;68007;51.312;12.372;2023-03-01T00:55:28;16.30;;;9.33;;
3417;SDS011;68007;51.312;12.372;2023-03-01T00:57:56;17.93;;;9.90;;
3417;SDS011;68007;51.312;12.372;2023-03-01T01:00:23;18.20;;;10.27;;
3417;SDS011;68007;51.312;12.372;2023-03-01T01:02:54;14.23;;;9.87;;
3417;SDS011;68007;51.312;12.372;2023-03-01T01:05:22;19.60;;;10.10;;
3417;SDS011;68007;51.312;12.372;2023-03-01T01:07:49;16.27;;;10.33;;
3417;SDS011;68007;51.312;12.372;2023-03-01T01:10:17;15.23;;;9.00;;
3417;SDS011;68007;51.312;12.372;2023-03-01T01:12:46;19.43;;;8.90;;
3417;SDS011;68007;51.312;12.372;2023-03-01T01:15:13;25.37;;;9.97;;
3417;SDS011;68007;51.312;12.372;2023-03-01T01:17:42;23.33;;;10.73;;
3417;SDS011;68007;51.312;12.372;2023-03-01T01:20:12;21.27;;;10.60;;
3417;SDS011;68007;51.312;12.372;2023-03-01T01:22:39;17.70;;;9.60;;
3417;SDS011;68007;51.312;12.372;2023-03-01T01:25:07;15.60;;;9.83;;
3417;SDS011;68007;51.312;12.372;2023-03-01T01:27:36;17.70;;;9.60;;
3417;SDS011;68007;51.312;12.372;2023-03-01T01:30:04;15.00;;;9.60;;
3417;SDS011;68007;51.312;12.372;2023-03-01T01:32:32;17.57;;;9.20;;
3417;SDS011;68007;51.312;12.372;2023-03-01T01:35:00;16.10;;;9.30;;
3417;SDS011;68007;51.312;12.372;2023-03-01T01:37:28;16.00;;;9.03;;
3417;SDS011;68007;51.312;12.372;2023-03-01T01:39:57;16.00;;;9.20;;
3417;SDS011;68007;51.312;12.372;2023-03-01T01:42:26;17.37;;;9.83;;
3417;SDS011;68007;51.312;12.372;2023-03-01T01:47:51;16.47;;;8.90;;
3417;SDS011;68007;51.312;12.372;2023-03-01T01:50:21;16.27;;;10.73;;
3417;SDS011;68007;51.312;12.372;2023-03-01T01:52:50;16.00;;;9.20;;
3417;SDS011;68007;51.312;12.372;2023-03-01T01:55:21;17.60;;;9.80;;
3417;SDS011;68007;51.312;12.372;2023-03-01T01:57:53;19.07;;;9.33;;
3417;SDS011;68007;51.312;12.372;2023-03-01T02:00:24;16.80;;;10.10;;
3417;SDS011;68007;51.312;12.372;2023-03-01T02:02:54;14.83;;;9.00;;
3417;SDS011;68007;51.312;12.372;2023-03-01T02:05:26;13.80;;;9.17;;
3417;SDS011;68007;51.312;12.372;2023-03-01T02:08:00;15.60;;;10.00;;
3417;SDS011;68007;51.312;12.372;2023-03-01T02:10:28;19.33;;;8.70;;
3417;SDS011;68007;51.312;12.372;2023-03-01T02:12:59;16.50;;;9.73;;
3417;SDS011;68007;51.312;12.372;2023-03-01T02:15:29;16.17;;;9.27;;
3417;SDS011;68007;51.312;12.372;2023-03-01T02:17:59;21.87;;;9.90;;
3417;SDS011;68007;51.312;12.372;2023-03-01T02:20:29;22.00;;;9.47;;
3417;SDS011;68007;51.312;12.372;2023-03-01T02:23:02;14.20;;;8.60;;
3417;SDS011;68007;51.312;12.372;2023-03-01T02:25:34;13.63;;;8.27;;
3417;SDS011;68007;51.312;12.372;2023-03-01T02:28:08;17.23;;;10.00;;
3417;SDS011;68007;51.312;12.372;2023-03-01T02:30:48;15.57;;;9.17;;
3417;SDS011;68007;51.312;12.372;2023-03-01T02:33:35;17.63;;;10.60;;
3417;SDS011;68007;51.312;12.372;2023-03-01T02:36:04;16.90;;;9.30;;
3417;SDS011;68007;51.312;12.372;2023-03-01T02:38:35;21.47;;;9.03;;
3417;SDS011;68007;51.312;12.372;2023-03-01T02:41:03;17.80;;;9.40;;
3417;SDS011;68007;51.312;12.372;2023-03-01T02:43:35;15.93;;;9.00;;
3417;SDS011;68007;51.312;12.372;2023-03-01T02:46:07;18.10;;;9.53;;
3417;SDS011;68007;51.312;12.372;2023-03-01T02:48:40;15.57;;;9.20;;
3417;SDS011;68007;51.312;12.372;2023-03-01T02:51:10;17.63;;;8.80;;
3417;SDS011;68007;51.312;12.372;2023-03-01T02:53:53;16.97;;;8.80;;
3417;SDS011;68007;51.312;12.372;2023-03-01T02:56:34;16.20;;;8.73;;
3417;SDS011;68007;51.312;12.372;2023-03-01T02:59:05;15.90;;;9.07;;
3417;SDS011;68007;51.312;12.372;2023-03-01T03:01:33;16.70;;;8.87;;
3417;SDS011;68007;51.312;12.372;2023-03-01T03:04:04;21.10;;;9.80;;
3417;SDS011;68007;51.312;12.372;2023-03-01T03:06:32;14.63;;;8.80;;
3417;SDS011;68007;51.312;12.372;2023-03-01T03:09:00;14.10;;;8.23;;
3417;SDS011;68007;51.312;12.372;2023-03-01T03:11:28;14.27;;;8.17;;
3417;SDS011;68007;51.312;12.372;2023-03-01T03:13:56;17.57;;;8.53;;
3417;SDS011;68007;51.312;12.372;2023-03-01T03:16:25;18.70;;;8.97;;
3417;SDS011;68007;51.312;12.372;2023-03-01T03:18:52;15.20;;;9.23;;
3417;SDS011;68007;51.312;12.372;2023-03-01T03:21:20;16.90;;;8.30;;
3417;SDS011;68007;51.312;12.372;2023-03-01T03:23:48;14.50;;;9.07;;
3417;SDS011;68007;51.312;12.372;2023-03-01T03:26:15;14.30;;;8.37;;
3417;SDS011;68007;51.312;12.372;2023-03-01T03:28:43;16.70;;;8.73;;
3417;SDS011;68007;51.312;12.372;2023-03-01T03:31:10;15.77;;;8.40;;
3417;SDS011;68007;51.312;12.372;2023-03-01T03:33:39;19.90;;;8.50;;
3417;SDS011;68007;51.312;12.372;2023-03-01T03:36:07;13.07;;;8.23;;
3417;SDS011;68007;51.312;12.372;2023-03-01T03:38:38;16.10;;;8.47;;
3417;SDS011;68007;51.312;12.372;2023-03-01T03:41:07;19.20;;;9.30;;
3417;SDS011;68007;51.312;12.372;2023-03-01T03:43:35;13.40;;;7.43;;
3417;SDS011;68007;51.312;12.372;2023-03-01T03:46:04;16.90;;;8.90;;
3417;SDS011;68007;51.312;12.372;2023-03-01T03:48:33;14.37;;;8.90;;
3417;SDS011;68007;51.312;12.372;2023-03-01T03:51:02;14.27;;;7.40;;
3417;SDS011;68007;51.312;12.372;2023-03-01T03:53:31;13.27;;;7.83;;
3417;SDS011;68007;51.312;12.372;2023-03-01T03:55:59;14.53;;;8.50;;
3417;SDS011;68007;51.312;12.372;2023-03-01T03:58:27;16.50;;;9.00;;
3417;SDS011;68007;51.312;12.372;2023-03-01T04:00:55;14.40;;;9.43;;
3417;SDS011;68007;51.312;12.372;2023-03-01T04:03:24;12.97;;;8.43;;
3417;SDS011;68007;51.312;12.372;2023-03-01T04:05:52;16.43;;;8.90;;
3417;SDS011;68007;51.312;12.372;2023-03-01T04:08:22;13.43;;;8.47;;
3417;SDS011;68007;51.312;12.372;2023-03-01T04:10:51;15.00;;;8.40;;
3417;SDS011;68007;51.312;12.372;2023-03-01T04:13:21;14.93;;;8.87;;
3417;SDS011;68007;51.312;12.372;2023-03-01T04:15:51;14.63;;;8.50;;
3417;SDS011;68007;51.312;12.372;2023-03-01T04:18:20;13.67;;;8.07;;
3417;SDS011;68007;51.312;12.372;2023-03-01T04:20:50;12.90;;;8.60;;
3417;SDS011;68007;51.312;12.372;2023-03-01T04:23:22;13.00;;;8.37;;
3417;SDS011;68007;51.312;12.372;2023-03-01T04:25:50;18.07;;;9.13;;
3417;SDS011;68007;51.312;12.372;2023-03-01T04:28:20;18.23;;;9.30;;
3417;SDS011;68007;51.312;12.372;2023-03-01T04:30:50;17.60;;;9.07;;
3417;SDS011;68007;51.312;12.372;2023-03-01T04:33:18;21.67;;;9.40;;
3417;SDS011;68007;51.312;12.372;2023-03-01T04:35:46;14.67;;;8.60;;
3417;SDS011;68007;51.312;12.372;2023-03-01T04:38:15;16.60;;;9.07;;
3417;SDS011;68007;51.312;12.372;2023-03-01T04:40:44;19.90;;;9.67;;
3417;SDS011;68007;51.312;12.372;2023-03-01T04:43:12;19.73;;;8.93;;
3417;SDS011;68007;51.312;12.372;2023-03-01T04:45:41;19.33;;;9.40;;
3417;SDS011;68007;51.312;12.372;2023-03-01T04:48:08;14.53;;;8.70;;
3417;SDS011;68007;51.312;12.372;2023-03-01T04:50:36;16.97;;;9.37;;
3417;SDS011;68007;51.312;12.372;2023-03-01T04:53:03;20.67;;;10.10;;
3417;SDS011;68007;51.312;12.372;2023-03-01T04:55:31;15.83;;;8.73;;
3417;SDS011;68007;51.312;12.372;2023-03-01T04:58:00;16.70;;;9.20;;
3417;SDS011;68007;51.312;12.372;2023-03-01T05:00:27;15.33;;;9.10;;
3417;SDS011;68007;51.312;12.372;2023-03-01T05:02:55;16.33;;;9.33;;
3417;SDS011;68007;51.312;12.372;2023-03-01T05:05:25;15.33;;;8.93;;
3417;SDS011;68007;51.312;12.372;2023-03-01T05:07:54;19.20;;;9.33;;
3417;SDS011;68007;51.312;12.372;2023-03-01T05:10:23;13.10;;;8.37;;
3417;SDS011;68007;51.312;12.372;2023-03-01T05:12:52;17.47;;;9.17;;
3417;SDS011;68007;51.312;12.372;2023-03-01T05:15:20;17.60;;;9.50;;
3417;SDS011;68007;51.312;12.372;2023-03-01T05:17:51;21.23;;;10.37;;
3417;SDS011;68007;51.312;12.372;2023-03-01T05:20:20;15.57;;;9.47;;
3417;SDS011;68007;51.312;12.372;2023-03-01T05:22:49;15.90;;;8.97;;
3417;SDS011;68007;51.312;12.372;2023-03-01T05:25:17;15.33;;;8.60;;
3417;SDS011;68007;51.312;12.372;2023-03-01T05:27:45;15.80;;;9.00;;
3417;SDS011;68007;51.312;12.372;2023-03-01T05:30:12;18.40;;;9.27;;
3417;SDS011;68007;51.312;12.372;2023-03-01T05:32:43;19.37;;;10.03;;
3417;SDS011;68007;51.312;12.372;2023-03-01T05:35:12;15.60;;;9.50;;
3417;SDS011;68007;51.312;12.372;2023-03-01T05:37:41;19.43;;;9.60;;
3417;SDS011;68007;51.312;12.372;2023-03-01T05:40:10;19.17;;;9.65;;
3417;SDS011;68007;51.312;12.372;2023-03-01T05:42:42;16.50;;;10.38;;
3417;SDS011;68007;51.312;12.372;2023-03-01T05:45:11;17.30;;;10.75;;
3417;SDS011;68007;51.312;12.372;2023-03-01T05:47:39;16.53;;;9.50;;
3417;SDS011;68007;51.312;12.372;2023-03-01T05:50:12;20.25;;;10.45;;
3417;SDS011;68007;51.312;12.372;2023-03-01T05:52:45;17.03;;;10.63;;
3417;SDS011;68007;51.312;12.372;2023-03-01T05:55:14;20.10;;;9.55;;
3417;SDS011;68007;51.312;12.372;2023-03-01T05:57:42;17.20;;;9.90;;
3417;SDS011;68007;51.312;12.372;2023-03-01T06:00:10;19.00;;;10.05;;
3417;SDS011;68007;51.312;12.372;2023-03-01T06:02:39;22.88;;;11.13;;
3417;SDS011;68007;51.312;12.372;2023-03-01T06:05:08;23.15;;;11.18;;
3417;SDS011;68007;51.312;12.372;2023-03-01T06:07:38;18.92;;;10.60;;
3417;SDS011;68007;51.312;12.372;2023-03-01T06:10:06;22.08;;;11.07;;
3417;SDS011;68007;51.312;12.372;2023-03-01T06:12:36;21.00;;;11.00;;
3417;SDS011;68007;51.312;12.372;2023-03-01T06:15:05;21.05;;;10.75;;
3417;SDS011;68007;51.312;12.372;2023-03-01T06:17:35;17.70;;;9.93;;
3417;SDS011;68007;51.312;12.372;2023-03-01T06:20:05;18.75;;;11.15;;
3417;SDS011;68007;51.312;12.372;2023-03-01T06:22:35;18.73;;;10.15;;
3417;SDS011;68007;51.312;12.372;2023-03-01T06:25:04;21.92;;;11.93;;
3417;SDS011;68007;51.312;12.372;2023-03-01T06:27:33;24.50;;;11.13;;
3417;SDS011;68007;51.312;12.372;2023-03-01T06:30:01;17.83;;;10.30;;
3417;SDS011;68007;51.312;12.372;2023-03-01T06:32:29;19.08;;;10.80;;
3417;SDS011;68007;51.312;12.372;2023-03-01T06:34:57;17.55;;;11.10;;
3417;SDS011;68007;51.312;12.372;2023-03-01T06:37:25;24.40;;;11.10;;
3417;SDS011;68007;51.312;12.372;2023-03-01T06:39:52;21.95;;;11.98;;
3417;SDS011;68007;51.312;12.372;2023-03-01T06:42:21;22.83;;;11.82;;
3417;SDS011;68007;51.312;12.372;2023-03-01T06:44:49;22.25;;;10.40;;
3417;SDS011;68007;51.312;12.372;2023-03-01T06:47:17;23.15;;;12.25;;
3417;SDS011;68007;51.312;12.372;2023-03-01T06:49:44;23.55;;;12.60;;
3417;SDS011;68007;51.312;12.372;2023-03-01T06:52:11;18.13;;;11.18;;
3417;SDS011;68007;51.312;12.372;2023-03-01T06:54:39;21.80;;;11.57;;
3417;SDS011;68007;51.312;12.372;2023-03-01T06:57:06;20.55;;;12.25;;
3417;SDS011;68007;51.312;12.372;2023-03-01T06:59:35;28.20;;;13.02;;
3417;SDS011;68007;51.312;12.372;2023-03-01T07:02:03;23.23;;;11.32;;
3417;SDS011;68007;51.312;12.372;2023-03-01T07:04:30;21.30;;;11.10;;
3417;SDS011;68007;51.312;12.372;2023-03-01T07:06:58;25.42;;;12.20;;
3417;SDS011;68007;51.312;12.372;2023-03-01T07:09:25;17.80;;;10.45;;
3417;SDS011;68007;51.312;12.372;2023-03-01T07:11:53;21.75;;;11.00;;
3417;SDS011;68007;51.312;12.372;2023-03-01T07:14:20;20.58;;;11.48;;
3417;SDS011;68007;51.312;12.372;2023-03-01T07:16:51;28.02;;;11.90;;
3417;SDS011;68007;51.312;12.372;2023-03-01T07:19:19;23.92;;;13.10;;
3417;SDS011;68007;51.312;12.372;2023-03-01T07:21:47;24.40;;;12.15;;
3417;SDS011;68007;51.312;12.372;2023-03-01T07:24:15;20.13;;;11.18;;
3417;SDS011;68007;51.312;12.372;2023-03-01T07:26:42;20.05;;;12.70;;
3417;SDS011;68007;51.312;12.372;2023-03-01T07:29:10;23.13;;;11.70;;
3417;SDS011;68007;51.312;12.372;2023-03-01T07:31:38;20.73;;;12.60;;
3417;SDS011;68007;51.312;12.372;2023-03-01T07:34:06;23.50;;;12.73;;
3417;SDS011;68007;51.312;12.372;2023-03-01T07:36:34;22.75;;;12.18;;
3417;SDS011;68007;51.312;12.372;2023-03-01T07:39:01;24.92;;;12.95;;
3417;SDS011;68007;51.312;12.372;2023-03-01T07:41:29;20.00;;;11.50;;
3417;SDS011;68007;51.312;12.372;2023-03-01T07:43:57;25.83;;;14.30;;
3417;SDS011;68007;51.312;12.372;2023-03-01T07:46:24;21.02;;;12.40;;
3417;SDS011;68007;51.312;12.372;2023-03-01T07:48:52;25.13;;;12.45;;
3417;SDS011;68007;51.312;12.372;2023-03-01T07:51:21;27.93;;;13.53;;
3417;SDS011;68007;51.312;12.372;2023-03-01T07:53:48;26.00;;;12.97;;
3417;SDS011;68007;51.312;12.372;2023-03-01T07:56:16;23.40;;;13.73;;
3417;SDS011;68007;51.312;12.372;2023-03-01T07:58:44;28.67;;;13.40;;
3417;SDS011;68007;51.312;12.372;2023-03-01T08:01:13;27.45;;;12.50;;
3417;SDS011;68007;51.312;12.372;2023-03-01T08:03:41;28.60;;;12.50;;
3417;SDS011;68007;51.312;12.372;2023-03-01T08:06:11;23.80;;;13.20;;
3417;SDS011;68007;51.312;12.372;2023-03-01T08:08:41;21.20;;;11.65;;
3417;SDS011;68007;51.312;12.372;2023-03-01T08:11:10;29.30;;;12.30;;
3417;SDS011;68007;51.312;12.372;2023-03-01T08:13:38;20.67;;;12.00;;
3417;SDS011;68007;51.312;12.372;2023-03-01T08:16:06;22.08;;;12.45;;
3417;SDS011;68007;51.312;12.372;2023-03-01T08:18:35;21.45;;;12.68;;
3417;SDS011;68007;51.312;12.372;2023-03-01T08:21:03;24.90;;;13.10;;
3417;SDS011;68007;51.312;12.372;2023-03-01T08:23:31;30.70;;;13.67;;
3417;SDS011;68007;51.312;12.372;2023-03-01T08:26:07;19.30;;;11.87;;
3417;SDS011;68007;51.312;12.372;2023-03-01T08:28:36;24.63;;;13.50;;
3417;SDS011;68007;51.312;12.372;2023-03-01T08:31:12;29.10;;;14.17;;
3417;SDS011;68007;51.312;12.372;2023-03-01T08:33:41;26.27;;;13.20;;
3417;SDS011;68007;51.312;12.372;2023-03-01T08:36:08;23.43;;;11.83;;
3417;SDS011;68007;51.312;12.372;2023-03-01T08:38:37;23.43;;;12.87;;
3417;SDS011;68007;51.312;12.372;2023-03-01T08:41:05;22.70;;;13.10;;
3417;SDS011;68007;51.312;12.372;2023-03-01T08:43:33;21.37;;;12.30;;
3417;SDS011;68007;51.312;12.372;2023-03-01T08:46:01;24.43;;;12.87;;
3417;SDS011;68007;51.312;12.372;2023-03-01T08:48:28;28.43;;;12.83;;
3417;SDS011;68007;51.312;12.372;2023-03-01T08:50:56;20.73;;;12.63;;
3417;SDS011;68007;51.312;12.372;2023-03-01T08:53:24;25.60;;;12.97;;
3417;SDS011;68007;51.312;12.372;2023-03-01T08:55:51;24.60;;;13.10;;
3417;SDS011;68007;51.312;12.372;2023-03-01T08:58:20;22.90;;;13.33;;
3417;SDS011;68007;51.312;12.372;2023-03-01T09:00:48;23.97;;;12.70;;
3417;SDS011;68007;51.312;12.372;2023-03-01T09:03:15;25.20;;;13.07;;
3417;SDS011;68007;51.312;12.372;2023-03-01T09:05:43;24.67;;;12.90;;
3417;SDS011;68007;51.312;12.372;2023-03-01T09:08:11;24.77;;;15.23;;
3417;SDS011;68007;51.312;12.372;2023-03-01T09:10:39;28.87;;;15.33;;
3417;SDS011;68007;51.312;12.372;2023-03-01T09:13:06;25.43;;;12.70;;
3417;SDS011;68007;51.312;12.372;2023-03-01T09:15:35;27.53;;;13.97;;
3417;SDS011;68007;51.312;12.372;2023-03-01T09:18:03;27.40;;;14.00;;
3417;SDS011;68007;51.312;12.372;2023-03-01T09:20:31;26.53;;;14.07;;
3417;SDS011;68007;51.312;12.372;2023-03-01T09:22:59;26.77;;;15.20;;
3417;SDS011;68007;51.312;12.372;2023-03-01T09:25:27;28.67;;;14.73;;
3417;SDS011;68007;51.312;12.372;2023-03-01T09:27:55;24.83;;;13.33;;
3417;SDS011;68007;51.312;12.372;2023-03-01T09:30:24;23.87;;;13.10;;
3417;SDS011;68007;51.312;12.372;2023-03-01T09:32:53;29.03;;;14.97;;
3417;SDS011;68007;51.312;12.372;2023-03-01T09:35:20;30.03;;;15.13;;
3417;SDS011;68007;51.312;12.372;2023-03-01T09:37:49;26.10;;;14.60;;
3417;SDS011;68007;51.312;12.372;2023-03-01T09:40:17;27.30;;;14.13;;
3417;SDS011;68007;51.312;12.372;2023-03-01T09:42:48;24.47;;;14.20;;
3417;SDS011;68007;51.312;12.372;2023-03-01T09:45:28;29.37;;;15.00;;
3417;SDS011;68007;51.312;12.372;2023-03-01T09:48:01;26.23;;;14.27;;
3417;SDS011;68007;51.312;12.372;2023-03-01T09:50:33;29.17;;;15.03;;
3417;SDS011;68007;51.312;12.372;2023-03-01T09:53:05;27.20;;;14.20;;
3417;SDS011;68007;51.312;12.372;2023-03-01T09:55:37;26.20;;;15.10;;
3417;SDS011;68007;51.312;12.372;2023-03-01T09:58:17;26.10;;;13.70;;
3417;SDS011;68007;51.312;12.372;2023-03-01T10:00:59;25.87;;;15.30;;
3417;SDS011;68007;51.312;12.372;2023-03-01T10:03:39;26.43;;;14.00;;
3417;SDS011;68007;51.312;12.372;2023-03-01T10:06:12;28.10;;;15.20;;
3417;SDS011;68007;51.312;12.372;2023-03-01T10:08:46;25.17;;;14.60;;
3417;SDS011;68007;51.312;12.372;2023-03-01T10:11:21;28.37;;;14.70;;
3417;SDS011;68007;51.312;12.372;2023-03-01T10:13:54;25.00;;;15.03;;
3417;SDS011;68007;51.312;12.372;2023-03-01T10:16:26;25.00;;;14.20;;
3417;SDS011;68007;51.312;12.372;2023-03-01T10:19:03;24.33;;;13.80;;
3417;SDS011;68007;51.312;12.372;2023-03-01T10:21:31;22.63;;;14.03;;
3417;SDS011;68007;51.312;12.372;2023-03-01T10:24:08;26.00;;;14.67;;
3417;SDS011;68007;51.312;12.372;2023-03-01T10:26:41;24.93;;;13.50;;
3417;SDS011;68007;51.312;12.372;2023-03-01T10:29:17;25.37;;;14.67;;
3417;SDS011;68007;51.312;12.372;2023-03-01T10:31:50;20.37;;;12.03;;
3417;SDS011;68007;51.312;12.372;2023-03-01T10:34:21;24.33;;;14.07;;
3417;SDS011;68007;51.312;12.372;2023-03-01T10:36:55;22.10;;;13.20;;
3417;SDS011;68007;51.312;12.372;2023-03-01T10:39:25;24.57;;;14.40;;
3417;SDS011;68007;51.312;12.372;2023-03-01T10:42:00;25.77;;;14.20;;
3417;SDS011;68007;51.312;12.372;2023-03-01T10:44:42;24.33;;;13.30;;
3417;SDS011;68007;51.312;12.372;2023-03-01T10:47:13;29.83;;;13.73;;
3417;SDS011;68007;51.312;12.372;2023-03-01T10:49:52;23.43;;;13.03;;
3417;SDS011;68007;51.312;12.372;2023-03-01T10:52:23;29.90;;;14.00;;
3417;SDS011;68007;51.312;12.372;2023-03-01T10:54:52;23.60;;;13.33;;
3417;SDS011;68007;51.312;12.372;2023-03-01T10:57:27;18.50;;;11.97;;
3417;SDS011;68007;51.312;12.372;2023-03-01T11:00:00;19.83;;;11.87;;
3417;SDS011;68007;51.312;12.372;2023-03-01T11:02:42;20.67;;;10.87;;
3417;SDS011;68007;51.312;12.372;2023-03-01T11:05:16;21.53;;;12.43;;
3417;SDS011;68007;51.312;12.372;2023-03-01T11:07:47;19.17;;;11.37;;
3417;SDS011;68007;51.312;12.372;2023-03-01T11:10:17;19.77;;;11.57;;
3417;SDS011;68007;51.312;12.372;2023-03-01T11:12:45;20.63;;;11.70;;
3417;SDS011;68007;51.312;12.372;2023-03-01T11:15:23;17.93;;;11.40;;
3417;SDS011;68007;51.312;12.372;2023-03-01T11:17:53;28.17;;;12.67;;
3417;SDS011;68007;51.312;12.372;2023-03-01T11:20:29;20.47;;;12.80;;
3417;SDS011;68007;51.312;12.372;2023-03-01T11:22:59;19.47;;;12.80;;
3417;SDS011;68007;51.312;12.372;2023-03-01T11:25:31;22.67;;;13.47;;
3417;SDS011;68007;51.312;12.372;2023-03-01T11:28:03;22.17;;;13.10;;
3417;SDS011;68007;51.312;12.372;2023-03-01T11:30:35;24.40;;;14.23;;
3417;SDS011;68007;51.312;12.372;2023-03-01T11:33:11;22.87;;;13.33;;
3417;SDS011;68007;51.312;12.372;2023-03-01T11:35:46;21.73;;;13.73;;
3417;SDS011;68007;51.312;12.372;2023-03-01T11:38:21;24.40;;;14.20;;
3417;SDS011;68007;51.312;12.372;2023-03-01T11:40:52;29.13;;;15.43;;
3417;SDS011;68007;51.312;12.372;2023-03-01T11:43:26;27.07;;;16.03;;
3417;SDS011;68007;51.312;12.372;2023-03-01T11:49:16;23.50;;;14.60;;
3417;SDS011;68007;51.312;12.372;2023-03-01T11:52:02;26.10;;;14.60;;
3417;SDS011;68007;51.312;12.372;2023-03-01T11:54:44;28.03;;;15.47;;
3417;SDS011;68007;51.312;12.372;2023-03-01T11:57:28;29.60;;;15.37;;
3417;SDS011;68007;51.312;12.372;2023-03-01T12:00:19;28.07;;;16.70;;
3417;SDS011;68007;51.312;12.372;2023-03-01T12:03:18;26.50;;;15.43;;
3417;SDS011;68007;51.312;12.372;2023-03-01T12:06:02;30.53;;;16.63;;
3417;SDS011;68007;51.312;12.372;2023-03-01T12:08:39;27.27;;;15.83;;
3417;SDS011;68007;51.312;12.372;2023-03-01T12:11:16;25.53;;;15.23;;
3417;SDS011;68007;51.312;12.372;2023-03-01T12:13:56;25.23;;;14.63;;
3417;SDS011;68007;51.312;12.372;2023-03-01T12:16:42;28.83;;;16.13;;
3417;SDS011;68007;51.312;12.372;2023-03-01T12:19:33;23.87;;;14.57;;
3417;SDS011;68007;51.312;12.372;2023-03-01T12:22:18;30.33;;;16.03;;
3417;SDS011;68007;51.312;12.372;2023-03-01T12:25:04;24.33;;;14.70;;
3417;SDS011;68007;51.312;12.372;2023-03-01T12:27:57;25.23;;;14.80;;
3417;SDS011;68007;51.312;12.372;2023-03-01T12:30:35;24.90;;;15.43;;
3417;SDS011;68007;51.312;12.372;2023-03-01T12:33:18;22.70;;;13.80;;
3417;SDS011;68007;51.312;12.372;2023-03-01T12:38:59;21.90;;;13.60;;
3417;SDS011;68007;51.312;12.372;2023-03-01T12:41:44;22.60;;;13.00;;
3417;SDS011;68007;51.312;12.372;2023-03-01T12:44:27;18.43;;;12.67;;
3417;SDS011;68007;51.312;12.372;2023-03-01T12:47:15;17.47;;;11.60;;
3417;SDS011;68007;51.312;12.372;2023-03-01T12:49:54;18.80;;;12.10;;
3417;SDS011;68007;51.312;12.372;2023-03-01T12:52:26;22.57;;;12.97;;
3417;SDS011;68007;51.312;12.372;2023-03-01T12:55:01;18.20;;;12.13;;
3417;SDS011;68007;51.312;12.372;2023-03-01T12:57:36;20.53;;;12.40;;
3417;SDS011;68007;51.312;12.372;2023-03-01T13:00:14;22.00;;;12.30;;
3417;SDS011;68007;51.312;12.372;2023-03-01T13:02:54;20.70;;;11.90;;
3417;SDS011;68007;51.312;12.372;2023-03-01T13:05:33;19.50;;;12.10;;
3417;SDS011;68007;51.312;12.372;2023-03-01T13:08:08;19.03;;;11.67;;
3417;SDS011;68007;51.312;12.372;2023-03-01T13:10:43;18.00;;;12.17;;
3417;SDS011;68007;51.312;12.372;2023-03-01T13:13:20;17.57;;;11.67;;
3417;SDS011;68007;51.312;12.372;2023-03-01T13:15:49;18.47;;;11.87;;
3417;SDS011;68007;51.312;12.372;2023-03-01T13:18:28;20.17;;;11.83;;
3417;SDS011;68007;51.312;12.372;2023-03-01T13:20:57;19.00;;;11.77;;
3417;SDS011;68007;51.312;12.372;2023-03-01T13:23:31;20.97;;;12.63;;
3417;SDS011;68007;51.312;12.372;2023-03-01T13:26:06;18.63;;;12.47;;
3417;SDS011;68007;51.312;12.372;2023-03-01T13:28:40;19.80;;;12.07;;
3417;SDS011;68007;51.312;12.372;2023-03-01T13:34:45;22.80;;;12.53;;
3417;SDS011;68007;51.312;12.372;2023-03-01T13:37:22;24.37;;;12.40;;
3417;SDS011;68007;51.312;12.372;2023-03-01T13:40:04;19.13;;;13.03;;
3417;SDS011;68007;51.312;12.372;2023-03-01T13:42:48;21.10;;;12.30;;
3417;SDS011;68007;51.312;12.372;2023-03-01T13:45:20;19.93;;;12.30;;
3417;SDS011;68007;51.312;12.372;2023-03-01T13:47:52;20.93;;;12.67;;
3417;SDS011;68007;51.312;12.372;2023-03-01T13:50:24;17.20;;;12.33;;
3417;SDS011;68007;51.312;12.372;2023-03-01T13:52:54;20.53;;;12.47;;
3417;SDS011;68007;51.312;12.372;2023-03-01T13:55:26;21.30;;;12.97;;
3417;SDS011;68007;51.312;12.372;2023-03-01T13:58:01;21.53;;;13.30;;
3417;SDS011;68007;51.312;12.372;2023-03-01T14:00:34;17.77;;;12.00;;
3417;SDS011;68007;51.312;12.372;2023-03-01T14:03:04;22.30;;;12.47;;
3417;SDS011;68007;51.312;12.372;2023-03-01T14:05:36;22.03;;;13.97;;
3417;SDS011;68007;51.312;12.372;2023-03-01T14:08:05;21.33;;;12.17;;
3417;SDS011;68007;51.312;12.372;2023-03-01T14:10:49;18.90;;;12.30;;
3417;SDS011;68007;51.312;12.372;2023-03-01T14:13:48;18.90;;;12.00;;
3417;SDS011;68007;51.312;12.372;2023-03-01T14:16:35;18.13;;;12.00;;
3417;SDS011;68007;51.312;12.372;2023-03-01T14:19:15;19.33;;;12.67;;
3417;SDS011;68007;51.312;12.372;2023-03-01T14:21:45;18.57;;;11.93;;
3417;SDS011;68007;51.312;12.372;2023-03-01T14:24:20;22.30;;;12.30;;
3417;SDS011;68007;51.312;12.372;2023-03-01T14:26:49;22.23;;;12.00;;
3417;SDS011;68007;51.312;12.372;2023-03-01T14:29:23;17.90;;;11.33;;
3417;SDS011;68007;51.312;12.372;2023-03-01T14:31:53;23.47;;;12.53;;
3417;SDS011;68007;51.312;12.372;2023-03-01T14:34:22;17.70;;;11.63;;
3417;SDS011;68007;51.312;12.372;2023-03-01T14:36:51;13.63;;;9.90;;
3417;SDS011;68007;51.312;12.372;2023-03-01T14:39:19;25.73;;;10.53;;
3417;SDS011;68007;51.312;12.372;2023-03-01T14:41:52;21.27;;;10.93;;
3417;SDS011;68007;51.312;12.372;2023-03-01T14:44:21;16.20;;;9.23;;
3417;SDS011;68007;51.312;12.372;2023-03-01T14:46:51;16.87;;;10.40;;
3417;SDS011;68007;51.312;12.372;2023-03-01T14:49:23;17.63;;;9.90;;
3417;SDS011;68007;51.312;12.372;2023-03-01T14:51:54;15.00;;;9.27;;
3417;SDS011;68007;51.312;12.372;2023-03-01T14:54:27;17.90;;;10.40;;
3417;SDS011;68007;51.312;12.372;2023-03-01T14:57:04;16.10;;;9.57;;
3417;SDS011;68007;51.312;12.372;2023-03-01T14:59:32;15.07;;;9.80;;
3417;SDS011;68007;51.312;12.372;2023-03-01T15:02:02;15.53;;;8.47;;